sensor_id;sensor_type;location;lat;lon;timestamp;P1;durP1;ratioP1;P2;durP2;ratioP2
16385;SDS011;8302;51.154;4.456;2022-12-20T00:01:23;2.88;;;0.98;;
16385;SDS011;8302;51.154;4.456;2022-12-20T00:03:53;1.83;;;1.00;;
16385;SDS011;8302;51.154;4.456;2022-12-20T00:06:21;1.95;;;1.05;;
16385;SDS011;8302;51.154;4.456;2022-12-20T00:08:52;1.17;;;0.85;;
16385;SDS011;8302;51.154;4.456;2022-12-20T00:11:20;1.60;;;0.98;;
16385;SDS011;8302;51.154;4.456;2022-12-20T00:13:48;1.13;;;1.02;;
16385;SDS011;8302;51.154;4.456;2022-12-20T00:16:17;1.50;;;0.88;;
16385;SDS011;8302;51.154;4.456;2022-12-20T00:18:45;1.98;;;0.98;;
16385;SDS011;8302;51.154;4.456;2022-12-20T00:21:13;0.95;;;0.88;;
16385;SDS011;8302;51.154;4.456;2022-12-20T00:23:41;0.60;;;0.60;;
16385;SDS011;8302;51.154;4.456;2022-12-20T00:26:10;0.68;;;0.60;;
16385;SDS011;8302;51.154;4.456;2022-12-20T00:28:38;1.27;;;1.02;;
16385;SDS011;8302;51.154;4.456;2022-12-20T00:31:07;1.42;;;0.90;;
16385;SDS011;8302;51.154;4.456;2022-12-20T00:33:36;2.22;;;0.85;;
16385;SDS011;8302;51.154;4.456;2022-12-20T00:36:07;1.60;;;0.90;;
16385;SDS011;8302;51.154;4.456;2022-12-20T00:38:35;1.23;;;0.95;;
16385;SDS011;8302;51.154;4.456;2022-12-20T00:41:04;0.80;;;0.80;;
16385;SDS011;8302;51.154;4.456;2022-12-20T00:43:32;1.58;;;0.88;;
16385;SDS011;8302;51.154;4.456;2022-12-20T00:46:01;1.27;;;0.85;;
16385;SDS011;8302;51.154;4.456;2022-12-20T00:48:31;2.25;;;1.00;;
16385;SDS011;8302;51.154;4.456;2022-12-20T00:51:01;1.40;;;0.80;;
16385;SDS011;8302;51.154;4.456;2022-12-20T00:53:29;0.82;;;0.70;;
16385;SDS011;8302;51.154;4.456;2022-12-20T00:55:57;1.48;;;1.23;;
16385;SDS011;8302;51.154;4.456;2022-12-20T00:58:25;1.55;;;0.90;;
16385;SDS011;8302;51.154;4.456;2022-12-20T01:00:53;1.38;;;1.15;;
16385;SDS011;8302;51.154;4.456;2022-12-20T01:03:22;1.00;;;0.82;;
16385;SDS011;8302;51.154;4.456;2022-12-20T01:05:50;0.73;;;0.73;;
16385;SDS011;8302;51.154;4.456;2022-12-20T01:08:21;1.15;;;0.95;;
16385;SDS011;8302;51.154;4.456;2022-12-20T01:10:56;0.93;;;0.60;;
16385;SDS011;8302;51.154;4.456;2022-12-20T01:13:24;1.35;;;0.80;;
16385;SDS011;8302;51.154;4.456;2022-12-20T01:15:52;1.05;;;0.65;;
16385;SDS011;8302;51.154;4.456;2022-12-20T01:18:20;1.17;;;0.82;;
16385;SDS011;8302;51.154;4.456;2022-12-20T01:20:48;0.63;;;0.63;;
16385;SDS011;8302;51.154;4.456;2022-12-20T01:23:15;1.20;;;0.70;;
16385;SDS011;8302;51.154;4.456;2022-12-20T01:25:44;0.75;;;0.75;;
16385;SDS011;8302;51.154;4.456;2022-12-20T01:28:12;0.50;;;0.50;;
16385;SDS011;8302;51.154;4.456;2022-12-20T01:30:40;3.45;;;1.08;;
16385;SDS011;8302;51.154;4.456;2022-12-20T01:33:08;0.65;;;0.65;;
16385;SDS011;8302;51.154;4.456;2022-12-20T01:35:36;0.30;;;0.30;;
16385;SDS011;8302;51.154;4.456;2022-12-20T01:38:04;1.70;;;1.02;;
16385;SDS011;8302;51.154;4.456;2022-12-20T01:40:31;1.35;;;0.90;;
16385;SDS011;8302;51.154;4.456;2022-12-20T01:43:01;1.33;;;0.70;;
16385;SDS011;8302;51.154;4.456;2022-12-20T01:45:29;1.17;;;0.65;;
16385;SDS011;8302;51.154;4.456;2022-12-20T01:47:57;2.65;;;0.82;;
16385;SDS011;8302;51.154;4.456;2022-12-20T01:50:25;0.20;;;0.20;;
16385;SDS011;8302;51.154;4.456;2022-12-20T01:52:53;1.42;;;0.88;;
16385;SDS011;8302;51.154;4.456;2022-12-20T01:55:25;1.35;;;0.77;;
16385;SDS011;8302;51.154;4.456;2022-12-20T01:57:53;0.73;;;0.73;;
16385;SDS011;8302;51.154;4.456;2022-12-20T02:00:24;1.40;;;0.50;;
16385;SDS011;8302;51.154;4.456;2022-12-20T02:02:52;1.17;;;0.40;;
16385;SDS011;8302;51.154;4.456;2022-12-20T02:05:21;0.90;;;0.57;;
16385;SDS011;8302;51.154;4.456;2022-12-20T02:07:50;0.68;;;0.68;;
16385;SDS011;8302;51.154;4.456;2022-12-20T02:10:20;0.40;;;0.40;;
16385;SDS011;8302;51.154;4.456;2022-12-20T02:12:50;0.40;;;0.40;;
16385;SDS011;8302;51.154;4.456;2022-12-20T02:15:26;1.85;;;0.55;;
16385;SDS011;8302;51.154;4.456;2022-12-20T02:18:00;1.42;;;0.63;;
16385;SDS011;8302;51.154;4.456;2022-12-20T02:20:44;0.70;;;0.70;;
16385;SDS011;8302;51.154;4.456;2022-12-20T02:23:34;1.05;;;0.70;;
16385;SDS011;8302;51.154;4.456;2022-12-20T02:26:13;1.08;;;0.68;;
16385;SDS011;8302;51.154;4.456;2022-12-20T02:28:51;1.70;;;1.15;;
16385;SDS011;8302;51.154;4.456;2022-12-20T02:31:24;0.95;;;0.85;;
16385;SDS011;8302;51.154;4.456;2022-12-20T02:33:53;0.73;;;0.73;;
16385;SDS011;8302;51.154;4.456;2022-12-20T02:36:22;2.78;;;0.70;;
16385;SDS011;8302;51.154;4.456;2022-12-20T02:38:51;1.17;;;0.85;;
16385;SDS011;8302;51.154;4.456;2022-12-20T02:41:21;0.60;;;0.60;;
16385;SDS011;8302;51.154;4.456;2022-12-20T02:43:52;0.70;;;0.57;;
16385;SDS011;8302;51.154;4.456;2022-12-20T02:46:42;1.08;;;0.60;;
16385;SDS011;8302;51.154;4.456;2022-12-20T02:49:12;0.50;;;0.50;;
16385;SDS011;8302;51.154;4.456;2022-12-20T02:51:41;1.25;;;0.90;;
16385;SDS011;8302;51.154;4.456;2022-12-20T02:54:09;1.15;;;0.60;;
16385;SDS011;8302;51.154;4.456;2022-12-20T02:56:39;3.67;;;1.15;;
16385;SDS011;8302;51.154;4.456;2022-12-20T02:59:10;0.60;;;0.47;;
16385;SDS011;8302;51.154;4.456;2022-12-20T03:01:41;1.10;;;0.75;;
16385;SDS011;8302;51.154;4.456;2022-12-20T03:04:13;1.45;;;1.10;;
16385;SDS011;8302;51.154;4.456;2022-12-20T03:06:54;1.38;;;1.27;;
16385;SDS011;8302;51.154;4.456;2022-12-20T03:09:21;0.70;;;0.70;;
16385;SDS011;8302;51.154;4.456;2022-12-20T03:11:50;3.40;;;1.25;;
16385;SDS011;8302;51.154;4.456;2022-12-20T03:14:18;2.03;;;1.10;;
16385;SDS011;8302;51.154;4.456;2022-12-20T03:16:48;1.77;;;0.90;;
16385;SDS011;8302;51.154;4.456;2022-12-20T03:19:17;2.25;;;1.08;;
16385;SDS011;8302;51.154;4.456;2022-12-20T03:21:45;1.20;;;0.90;;
16385;SDS011;8302;51.154;4.456;2022-12-20T03:24:13;0.63;;;0.63;;
16385;SDS011;8302;51.154;4.456;2022-12-20T03:26:41;1.35;;;0.82;;
16385;SDS011;8302;51.154;4.456;2022-12-20T03:29:09;0.73;;;0.57;;
16385;SDS011;8302;51.154;4.456;2022-12-20T03:31:37;1.10;;;0.70;;
16385;SDS011;8302;51.154;4.456;2022-12-20T03:34:05;1.42;;;0.90;;
16385;SDS011;8302;51.154;4.456;2022-12-20T03:36:34;1.40;;;1.00;;
16385;SDS011;8302;51.154;4.456;2022-12-20T03:39:04;1.40;;;1.00;;
16385;SDS011;8302;51.154;4.456;2022-12-20T03:41:36;0.85;;;0.73;;
16385;SDS011;8302;51.154;4.456;2022-12-20T03:44:05;2.08;;;1.30;;
16385;SDS011;8302;51.154;4.456;2022-12-20T03:46:33;1.60;;;1.15;;
16385;SDS011;8302;51.154;4.456;2022-12-20T03:49:03;1.58;;;1.02;;
16385;SDS011;8302;51.154;4.456;2022-12-20T03:51:35;0.98;;;0.82;;
16385;SDS011;8302;51.154;4.456;2022-12-20T03:54:03;0.82;;;0.82;;
16385;SDS011;8302;51.154;4.456;2022-12-20T03:56:48;0.70;;;0.70;;
16385;SDS011;8302;51.154;4.456;2022-12-20T03:59:16;1.42;;;0.95;;
16385;SDS011;8302;51.154;4.456;2022-12-20T04:01:44;1.38;;;0.75;;
16385;SDS011;8302;51.154;4.456;2022-12-20T04:04:13;1.30;;;0.95;;
16385;SDS011;8302;51.154;4.456;2022-12-20T04:06:42;1.00;;;0.80;;
16385;SDS011;8302;51.154;4.456;2022-12-20T04:09:10;2.08;;;1.35;;
16385;SDS011;8302;51.154;4.456;2022-12-20T04:11:44;0.35;;;0.30;;
16385;SDS011;8302;51.154;4.456;2022-12-20T04:14:13;2.13;;;1.30;;
16385;SDS011;8302;51.154;4.456;2022-12-20T04:16:42;1.52;;;1.20;;
16385;SDS011;8302;51.154;4.456;2022-12-20T04:19:11;2.42;;;1.50;;
16385;SDS011;8302;51.154;4.456;2022-12-20T04:21:44;1.67;;;0.93;;
16385;SDS011;8302;51.154;4.456;2022-12-20T04:24:14;0.65;;;0.55;;
16385;SDS011;8302;51.154;4.456;2022-12-20T04:26:51;1.58;;;0.75;;
16385;SDS011;8302;51.154;4.456;2022-12-20T04:29:19;0.90;;;0.85;;
16385;SDS011;8302;51.154;4.456;2022-12-20T04:31:47;0.75;;;0.55;;
16385;SDS011;8302;51.154;4.456;2022-12-20T04:34:16;0.90;;;0.90;;
16385;SDS011;8302;51.154;4.456;2022-12-20T04:36:45;0.60;;;0.55;;
16385;SDS011;8302;51.154;4.456;2022-12-20T04:39:21;1.13;;;1.02;;
16385;SDS011;8302;51.154;4.456;2022-12-20T04:42:17;1.75;;;0.93;;
16385;SDS011;8302;51.154;4.456;2022-12-20T04:44:46;1.20;;;0.90;;
16385;SDS011;8302;51.154;4.456;2022-12-20T04:47:18;0.43;;;0.43;;
16385;SDS011;8302;51.154;4.456;2022-12-20T04:49:46;2.15;;;0.93;;
16385;SDS011;8302;51.154;4.456;2022-12-20T04:52:16;0.98;;;0.80;;
16385;SDS011;8302;51.154;4.456;2022-12-20T04:55:01;1.30;;;0.93;;
16385;SDS011;8302;51.154;4.456;2022-12-20T04:57:31;1.15;;;0.80;;
16385;SDS011;8302;51.154;4.456;2022-12-20T04:59:59;1.15;;;0.80;;
16385;SDS011;8302;51.154;4.456;2022-12-20T05:02:27;1.40;;;0.90;;
16385;SDS011;8302;51.154;4.456;2022-12-20T05:05:01;1.33;;;0.90;;
16385;SDS011;8302;51.154;4.456;2022-12-20T05:07:36;0.95;;;0.63;;
16385;SDS011;8302;51.154;4.456;2022-12-20T05:10:05;2.13;;;0.60;;
16385;SDS011;8302;51.154;4.456;2022-12-20T05:12:32;1.88;;;0.95;;
16385;SDS011;8302;51.154;4.456;2022-12-20T05:15:02;0.77;;;0.77;;
16385;SDS011;8302;51.154;4.456;2022-12-20T05:17:30;0.65;;;0.50;;
16385;SDS011;8302;51.154;4.456;2022-12-20T05:19:59;0.82;;;0.52;;
16385;SDS011;8302;51.154;4.456;2022-12-20T05:22:29;0.95;;;0.93;;
16385;SDS011;8302;51.154;4.456;2022-12-20T05:25:15;1.33;;;1.10;;
16385;SDS011;8302;51.154;4.456;2022-12-20T05:28:04;0.90;;;0.85;;
16385;SDS011;8302;51.154;4.456;2022-12-20T05:30:34;2.42;;;0.80;;
16385;SDS011;8302;51.154;4.456;2022-12-20T05:33:02;1.05;;;0.57;;
16385;SDS011;8302;51.154;4.456;2022-12-20T05:35:30;1.30;;;0.88;;
16385;SDS011;8302;51.154;4.456;2022-12-20T05:38:03;1.40;;;0.73;;
16385;SDS011;8302;51.154;4.456;2022-12-20T05:40:33;0.52;;;0.52;;
16385;SDS011;8302;51.154;4.456;2022-12-20T05:43:01;0.90;;;0.90;;
16385;SDS011;8302;51.154;4.456;2022-12-20T05:45:35;1.00;;;0.50;;
16385;SDS011;8302;51.154;4.456;2022-12-20T05:48:11;0.88;;;0.57;;
16385;SDS011;8302;51.154;4.456;2022-12-20T05:50:40;0.90;;;0.70;;
16385;SDS011;8302;51.154;4.456;2022-12-20T05:53:22;1.00;;;0.82;;
16385;SDS011;8302;51.154;4.456;2022-12-20T05:55:54;0.30;;;0.30;;
16385;SDS011;8302;51.154;4.456;2022-12-20T05:58:28;0.32;;;0.32;;
16385;SDS011;8302;51.154;4.456;2022-12-20T06:01:00;0.50;;;0.50;;
16385;SDS011;8302;51.154;4.456;2022-12-20T06:03:32;1.00;;;0.60;;
16385;SDS011;8302;51.154;4.456;2022-12-20T06:06:03;0.47;;;0.47;;
16385;SDS011;8302;51.154;4.456;2022-12-20T06:08:39;0.77;;;0.65;;
16385;SDS011;8302;51.154;4.456;2022-12-20T06:11:11;0.63;;;0.52;;
16385;SDS011;8302;51.154;4.456;2022-12-20T06:13:50;2.05;;;0.68;;
16385;SDS011;8302;51.154;4.456;2022-12-20T06:16:18;1.48;;;0.63;;
16385;SDS011;8302;51.154;4.456;2022-12-20T06:18:47;0.32;;;0.32;;
16385;SDS011;8302;51.154;4.456;2022-12-20T06:21:16;1.38;;;0.82;;
16385;SDS011;8302;51.154;4.456;2022-12-20T06:23:44;4.03;;;0.60;;
16385;SDS011;8302;51.154;4.456;2022-12-20T06:26:14;1.63;;;0.70;;
16385;SDS011;8302;51.154;4.456;2022-12-20T06:28:48;1.50;;;0.90;;
16385;SDS011;8302;51.154;4.456;2022-12-20T06:31:25;2.08;;;1.02;;
16385;SDS011;8302;51.154;4.456;2022-12-20T06:33:54;0.95;;;0.80;;
16385;SDS011;8302;51.154;4.456;2022-12-20T06:36:25;1.10;;;0.90;;
16385;SDS011;8302;51.154;4.456;2022-12-20T06:38:54;0.63;;;0.50;;
16385;SDS011;8302;51.154;4.456;2022-12-20T06:41:23;2.00;;;0.93;;
16385;SDS011;8302;51.154;4.456;2022-12-20T06:43:52;2.85;;;1.17;;
16385;SDS011;8302;51.154;4.456;2022-12-20T06:46:19;3.70;;;1.20;;
16385;SDS011;8302;51.154;4.456;2022-12-20T06:48:48;1.42;;;0.90;;
16385;SDS011;8302;51.154;4.456;2022-12-20T06:51:16;1.00;;;0.80;;
16385;SDS011;8302;51.154;4.456;2022-12-20T06:53:45;4.53;;;1.45;;
16385;SDS011;8302;51.154;4.456;2022-12-20T06:56:12;5.25;;;1.15;;
16385;SDS011;8302;51.154;4.456;2022-12-20T06:58:42;1.08;;;0.82;;
16385;SDS011;8302;51.154;4.456;2022-12-20T07:01:09;2.88;;;1.45;;
16385;SDS011;8302;51.154;4.456;2022-12-20T07:03:37;4.40;;;1.45;;
16385;SDS011;8302;51.154;4.456;2022-12-20T07:06:05;6.80;;;1.63;;
16385;SDS011;8302;51.154;4.456;2022-12-20T07:08:33;5.28;;;1.38;;
16385;SDS011;8302;51.154;4.456;2022-12-20T07:11:04;3.47;;;1.38;;
16385;SDS011;8302;51.154;4.456;2022-12-20T07:13:32;2.85;;;1.60;;
16385;SDS011;8302;51.154;4.456;2022-12-20T07:16:02;1.50;;;1.05;;
16385;SDS011;8302;51.154;4.456;2022-12-20T07:18:30;0.77;;;0.77;;
16385;SDS011;8302;51.154;4.456;2022-12-20T07:20:58;1.10;;;0.93;;
16385;SDS011;8302;51.154;4.456;2022-12-20T07:23:26;2.05;;;1.40;;
16385;SDS011;8302;51.154;4.456;2022-12-20T07:25:54;1.10;;;0.80;;
16385;SDS011;8302;51.154;4.456;2022-12-20T07:28:22;1.67;;;1.10;;
16385;SDS011;8302;51.154;4.456;2022-12-20T07:30:51;3.92;;;1.55;;
16385;SDS011;8302;51.154;4.456;2022-12-20T07:33:21;3.97;;;1.25;;
16385;SDS011;8302;51.154;4.456;2022-12-20T07:35:50;4.68;;;1.33;;
16385;SDS011;8302;51.154;4.456;2022-12-20T07:38:20;1.27;;;0.95;;
16385;SDS011;8302;51.154;4.456;2022-12-20T07:40:48;5.20;;;1.20;;
16385;SDS011;8302;51.154;4.456;2022-12-20T07:43:16;8.65;;;2.65;;
16385;SDS011;8302;51.154;4.456;2022-12-20T07:45:44;1.95;;;1.30;;
16385;SDS011;8302;51.154;4.456;2022-12-20T07:48:13;1.65;;;0.98;;
16385;SDS011;8302;51.154;4.456;2022-12-20T07:50:48;3.17;;;0.80;;
16385;SDS011;8302;51.154;4.456;2022-12-20T07:53:16;3.80;;;1.52;;
16385;SDS011;8302;51.154;4.456;2022-12-20T07:55:44;1.75;;;1.02;;
16385;SDS011;8302;51.154;4.456;2022-12-20T07:58:12;2.80;;;1.40;;
16385;SDS011;8302;51.154;4.456;2022-12-20T08:00:40;4.22;;;1.50;;
16385;SDS011;8302;51.154;4.456;2022-12-20T08:03:09;4.10;;;1.50;;
16385;SDS011;8302;51.154;4.456;2022-12-20T08:05:39;2.55;;;0.93;;
16385;SDS011;8302;51.154;4.456;2022-12-20T08:08:09;1.33;;;1.00;;
16385;SDS011;8302;51.154;4.456;2022-12-20T08:10:37;3.35;;;1.75;;
16385;SDS011;8302;51.154;4.456;2022-12-20T08:13:05;2.28;;;1.23;;
16385;SDS011;8302;51.154;4.456;2022-12-20T08:15:34;2.30;;;0.85;;
16385;SDS011;8302;51.154;4.456;2022-12-20T08:18:02;2.55;;;1.08;;
16385;SDS011;8302;51.154;4.456;2022-12-20T08:20:31;2.20;;;1.63;;
16385;SDS011;8302;51.154;4.456;2022-12-20T08:23:01;3.33;;;1.20;;
16385;SDS011;8302;51.154;4.456;2022-12-20T08:25:30;3.75;;;1.48;;
16385;SDS011;8302;51.154;4.456;2022-12-20T08:28:07;2.03;;;1.00;;
16385;SDS011;8302;51.154;4.456;2022-12-20T08:30:35;2.50;;;1.50;;
16385;SDS011;8302;51.154;4.456;2022-12-20T08:33:03;1.77;;;0.85;;
16385;SDS011;8302;51.154;4.456;2022-12-20T08:35:31;3.83;;;1.20;;
16385;SDS011;8302;51.154;4.456;2022-12-20T08:37:59;1.80;;;1.25;;
16385;SDS011;8302;51.154;4.456;2022-12-20T08:40:27;1.98;;;1.10;;
16385;SDS011;8302;51.154;4.456;2022-12-20T08:42:57;3.47;;;1.15;;
16385;SDS011;8302;51.154;4.456;2022-12-20T08:45:32;3.38;;;1.25;;
16385;SDS011;8302;51.154;4.456;2022-12-20T08:48:00;2.88;;;1.70;;
16385;SDS011;8302;51.154;4.456;2022-12-20T08:50:28;2.50;;;1.35;;
16385;SDS011;8302;51.154;4.456;2022-12-20T08:52:56;3.05;;;1.52;;
16385;SDS011;8302;51.154;4.456;2022-12-20T08:55:23;2.92;;;1.40;;
16385;SDS011;8302;51.154;4.456;2022-12-20T08:57:56;2.20;;;1.52;;
16385;SDS011;8302;51.154;4.456;2022-12-20T09:00:24;2.80;;;1.55;;
16385;SDS011;8302;51.154;4.456;2022-12-20T09:02:52;2.00;;;1.35;;
16385;SDS011;8302;51.154;4.456;2022-12-20T09:05:20;1.75;;;1.30;;
16385;SDS011;8302;51.154;4.456;2022-12-20T09:07:48;4.40;;;1.30;;
16385;SDS011;8302;51.154;4.456;2022-12-20T09:10:16;2.65;;;1.40;;
16385;SDS011;8302;51.154;4.456;2022-12-20T09:12:44;1.88;;;1.23;;
16385;SDS011;8302;51.154;4.456;2022-12-20T09:15:13;2.00;;;1.35;;
16385;SDS011;8302;51.154;4.456;2022-12-20T09:17:41;3.38;;;1.30;;
16385;SDS011;8302;51.154;4.456;2022-12-20T09:20:09;2.75;;;1.30;;
16385;SDS011;8302;51.154;4.456;2022-12-20T09:22:37;2.00;;;1.33;;
16385;SDS011;8302;51.154;4.456;2022-12-20T09:25:06;3.90;;;1.67;;
16385;SDS011;8302;51.154;4.456;2022-12-20T09:27:33;2.47;;;1.40;;
16385;SDS011;8302;51.154;4.456;2022-12-20T09:30:01;3.13;;;1.48;;
16385;SDS011;8302;51.154;4.456;2022-12-20T09:32:31;2.97;;;1.10;;
16385;SDS011;8302;51.154;4.456;2022-12-20T09:34:59;2.97;;;1.45;;
16385;SDS011;8302;51.154;4.456;2022-12-20T09:37:28;3.78;;;1.30;;
16385;SDS011;8302;51.154;4.456;2022-12-20T09:39:56;2.42;;;1.20;;
16385;SDS011;8302;51.154;4.456;2022-12-20T09:42:25;2.45;;;1.20;;
16385;SDS011;8302;51.154;4.456;2022-12-20T09:44:54;3.08;;;1.17;;
16385;SDS011;8302;51.154;4.456;2022-12-20T09:47:23;1.15;;;1.00;;
16385;SDS011;8302;51.154;4.456;2022-12-20T09:49:54;4.03;;;1.40;;
16385;SDS011;8302;51.154;4.456;2022-12-20T09:52:25;1.67;;;1.38;;
16385;SDS011;8302;51.154;4.456;2022-12-20T09:54:58;3.20;;;1.30;;
16385;SDS011;8302;51.154;4.456;2022-12-20T09:57:29;3.67;;;1.45;;
16385;SDS011;8302;51.154;4.456;2022-12-20T10:00:00;1.80;;;1.30;;
16385;SDS011;8302;51.154;4.456;2022-12-20T10:02:29;2.90;;;1.38;;
16385;SDS011;8302;51.154;4.456;2022-12-20T10:05:21;1.80;;;1.15;;
16385;SDS011;8302;51.154;4.456;2022-12-20T10:07:52;2.20;;;1.42;;
16385;SDS011;8302;51.154;4.456;2022-12-20T10:10:33;1.27;;;1.10;;
16385;SDS011;8302;51.154;4.456;2022-12-20T10:13:06;4.25;;;1.42;;
16385;SDS011;8302;51.154;4.456;2022-12-20T10:15:38;2.60;;;1.40;;
16385;SDS011;8302;51.154;4.456;2022-12-20T10:18:16;2.20;;;1.27;;
16385;SDS011;8302;51.154;4.456;2022-12-20T10:20:53;2.58;;;1.30;;
16385;SDS011;8302;51.154;4.456;2022-12-20T10:23:24;2.15;;;1.20;;
16385;SDS011;8302;51.154;4.456;2022-12-20T10:25:58;5.00;;;1.30;;
16385;SDS011;8302;51.154;4.456;2022-12-20T10:28:28;1.65;;;1.10;;
16385;SDS011;8302;51.154;4.456;2022-12-20T10:30:58;2.40;;;1.38;;
16385;SDS011;8302;51.154;4.456;2022-12-20T10:33:26;1.70;;;1.20;;
16385;SDS011;8302;51.154;4.456;2022-12-20T10:35:55;1.42;;;1.08;;
16385;SDS011;8302;51.154;4.456;2022-12-20T10:38:44;3.85;;;1.13;;
16385;SDS011;8302;51.154;4.456;2022-12-20T10:41:14;1.42;;;1.10;;
16385;SDS011;8302;51.154;4.456;2022-12-20T10:43:49;1.95;;;1.10;;
16385;SDS011;8302;51.154;4.456;2022-12-20T10:46:18;3.10;;;1.20;;
16385;SDS011;8302;51.154;4.456;2022-12-20T10:48:47;2.13;;;1.00;;
16385;SDS011;8302;51.154;4.456;2022-12-20T10:51:18;2.13;;;1.10;;
16385;SDS011;8302;51.154;4.456;2022-12-20T10:53:51;0.85;;;0.82;;
16385;SDS011;8302;51.154;4.456;2022-12-20T10:56:20;0.80;;;0.80;;
16385;SDS011;8302;51.154;4.456;2022-12-20T10:58:52;1.30;;;0.73;;
16385;SDS011;8302;51.154;4.456;2022-12-20T11:01:21;1.63;;;0.88;;
16385;SDS011;8302;51.154;4.456;2022-12-20T11:03:52;0.30;;;0.30;;
16385;SDS011;8302;51.154;4.456;2022-12-20T11:06:23;1.63;;;0.93;;
16385;SDS011;8302;51.154;4.456;2022-12-20T11:08:51;1.27;;;0.70;;
16385;SDS011;8302;51.154;4.456;2022-12-20T11:11:26;1.13;;;0.45;;
16385;SDS011;8302;51.154;4.456;2022-12-20T11:13:55;1.15;;;0.57;;
16385;SDS011;8302;51.154;4.456;2022-12-20T11:16:39;0.82;;;0.52;;
16385;SDS011;8302;51.154;4.456;2022-12-20T11:19:13;1.55;;;0.80;;
16385;SDS011;8302;51.154;4.456;2022-12-20T11:21:49;1.02;;;0.80;;
16385;SDS011;8302;51.154;4.456;2022-12-20T11:24:22;1.33;;;0.70;;
16385;SDS011;8302;51.154;4.456;2022-12-20T11:26:59;1.85;;;0.85;;
16385;SDS011;8302;51.154;4.456;2022-12-20T11:30:03;0.77;;;0.73;;
16385;SDS011;8302;51.154;4.456;2022-12-20T11:32:36;0.95;;;0.80;;
16385;SDS011;8302;51.154;4.456;2022-12-20T11:35:16;1.02;;;0.70;;
16385;SDS011;8302;51.154;4.456;2022-12-20T11:37:48;1.40;;;0.88;;
16385;SDS011;8302;51.154;4.456;2022-12-20T11:40:23;0.98;;;0.88;;
16385;SDS011;8302;51.154;4.456;2022-12-20T11:45:37;0.70;;;0.57;;
16385;SDS011;8302;51.154;4.456;2022-12-20T11:48:14;0.85;;;0.73;;
16385;SDS011;8302;51.154;4.456;2022-12-20T11:50:57;0.60;;;0.60;;
16385;SDS011;8302;51.154;4.456;2022-12-20T11:53:30;1.05;;;0.77;;
16385;SDS011;8302;51.154;4.456;2022-12-20T11:56:00;0.77;;;0.70;;
16385;SDS011;8302;51.154;4.456;2022-12-20T11:58:30;1.08;;;0.70;;
16385;SDS011;8302;51.154;4.456;2022-12-20T12:01:00;0.73;;;0.68;;
16385;SDS011;8302;51.154;4.456;2022-12-20T12:03:31;1.00;;;0.50;;
16385;SDS011;8302;51.154;4.456;2022-12-20T12:06:02;0.60;;;0.60;;
16385;SDS011;8302;51.154;4.456;2022-12-20T12:08:37;1.52;;;0.77;;
16385;SDS011;8302;51.154;4.456;2022-12-20T12:11:08;2.38;;;0.70;;
16385;SDS011;8302;51.154;4.456;2022-12-20T12:13:58;1.13;;;0.70;;
16385;SDS011;8302;51.154;4.456;2022-12-20T12:16:29;1.65;;;0.73;;
16385;SDS011;8302;51.154;4.456;2022-12-20T12:18:58;0.93;;;0.60;;
16385;SDS011;8302;51.154;4.456;2022-12-20T12:21:29;0.43;;;0.30;;
16385;SDS011;8302;51.154;4.456;2022-12-20T12:24:01;6.18;;;0.80;;
16385;SDS011;8302;51.154;4.456;2022-12-20T12:26:34;1.95;;;0.75;;
16385;SDS011;8302;51.154;4.456;2022-12-20T12:29:02;0.90;;;0.80;;
16385;SDS011;8302;51.154;4.456;2022-12-20T12:31:33;1.05;;;0.60;;
16385;SDS011;8302;51.154;4.456;2022-12-20T12:34:06;0.98;;;0.50;;
16385;SDS011;8302;51.154;4.456;2022-12-20T12:36:42;0.63;;;0.40;;
16385;SDS011;8302;51.154;4.456;2022-12-20T12:42:04;1.50;;;0.80;;
16385;SDS011;8302;51.154;4.456;2022-12-20T12:44:38;1.40;;;0.68;;
16385;SDS011;8302;51.154;4.456;2022-12-20T12:47:10;0.60;;;0.60;;
16385;SDS011;8302;51.154;4.456;2022-12-20T12:49:41;0.45;;;0.45;;
16385;SDS011;8302;51.154;4.456;2022-12-20T12:52:21;0.47;;;0.45;;
16385;SDS011;8302;51.154;4.456;2022-12-20T12:55:00;1.33;;;0.70;;
16385;SDS011;8302;51.154;4.456;2022-12-20T12:57:30;1.73;;;0.75;;
16385;SDS011;8302;51.154;4.456;2022-12-20T13:03:04;0.70;;;0.60;;
16385;SDS011;8302;51.154;4.456;2022-12-20T13:05:41;0.68;;;0.65;;
16385;SDS011;8302;51.154;4.456;2022-12-20T13:08:14;1.52;;;1.00;;
16385;SDS011;8302;51.154;4.456;2022-12-20T13:10:56;0.43;;;0.43;;
16385;SDS011;8302;51.154;4.456;2022-12-20T13:13:26;1.27;;;0.77;;
16385;SDS011;8302;51.154;4.456;2022-12-20T13:16:05;0.50;;;0.50;;
16385;SDS011;8302;51.154;4.456;2022-12-20T13:18:33;0.52;;;0.52;;
16385;SDS011;8302;51.154;4.456;2022-12-20T13:21:23;0.40;;;0.40;;
16385;SDS011;8302;51.154;4.456;2022-12-20T13:26:48;0.47;;;0.43;;
16385;SDS011;8302;51.154;4.456;2022-12-20T13:29:22;1.52;;;0.70;;
16385;SDS011;8302;51.154;4.456;2022-12-20T13:31:50;0.22;;;0.22;;
16385;SDS011;8302;51.154;4.456;2022-12-20T13:34:37;0.60;;;0.60;;
16385;SDS011;8302;51.154;4.456;2022-12-20T13:39:47;0.57;;;0.52;;
16385;SDS011;8302;51.154;4.456;2022-12-20T13:42:18;1.60;;;0.80;;
16385;SDS011;8302;51.154;4.456;2022-12-20T13:44:51;0.55;;;0.40;;
16385;SDS011;8302;51.154;4.456;2022-12-20T13:47:27;1.95;;;0.45;;
16385;SDS011;8302;51.154;4.456;2022-12-20T13:49:58;0.30;;;0.30;;
16385;SDS011;8302;51.154;4.456;2022-12-20T13:52:27;0.93;;;0.47;;
16385;SDS011;8302;51.154;4.456;2022-12-20T13:54:57;0.65;;;0.30;;
16385;SDS011;8302;51.154;4.456;2022-12-20T13:57:27;0.43;;;0.43;;
16385;SDS011;8302;51.154;4.456;2022-12-20T13:59:58;0.45;;;0.45;;
16385;SDS011;8302;51.154;4.456;2022-12-20T14:02:33;0.50;;;0.50;;
16385;SDS011;8302;51.154;4.456;2022-12-20T14:05:03;1.50;;;0.47;;
16385;SDS011;8302;51.154;4.456;2022-12-20T14:07:34;0.65;;;0.60;;
16385;SDS011;8302;51.154;4.456;2022-12-20T14:10:03;0.75;;;0.70;;
16385;SDS011;8302;51.154;4.456;2022-12-20T14:12:31;0.52;;;0.52;;
16385;SDS011;8302;51.154;4.456;2022-12-20T14:15:18;0.40;;;0.40;;
16385;SDS011;8302;51.154;4.456;2022-12-20T14:17:47;0.70;;;0.45;;
16385;SDS011;8302;51.154;4.456;2022-12-20T14:20:16;0.43;;;0.43;;
16385;SDS011;8302;51.154;4.456;2022-12-20T14:22:47;0.50;;;0.45;;
16385;SDS011;8302;51.154;4.456;2022-12-20T14:25:19;0.63;;;0.50;;
16385;SDS011;8302;51.154;4.456;2022-12-20T14:27:49;1.10;;;0.82;;
16385;SDS011;8302;51.154;4.456;2022-12-20T14:30:29;1.05;;;0.73;;
16385;SDS011;8302;51.154;4.456;2022-12-20T14:32:57;2.03;;;0.70;;
16385;SDS011;8302;51.154;4.456;2022-12-20T14:35:25;0.50;;;0.50;;
16385;SDS011;8302;51.154;4.456;2022-12-20T14:37:55;0.57;;;0.50;;
16385;SDS011;8302;51.154;4.456;2022-12-20T14:40:24;0.85;;;0.45;;
16385;SDS011;8302;51.154;4.456;2022-12-20T14:42:52;0.60;;;0.50;;
16385;SDS011;8302;51.154;4.456;2022-12-20T14:45:21;2.83;;;0.28;;
16385;SDS011;8302;51.154;4.456;2022-12-20T14:47:59;0.82;;;0.50;;
16385;SDS011;8302;51.154;4.456;2022-12-20T14:50:29;0.38;;;0.38;;
16385;SDS011;8302;51.154;4.456;2022-12-20T14:52:57;1.27;;;0.65;;
16385;SDS011;8302;51.154;4.456;2022-12-20T14:55:28;2.10;;;0.55;;
16385;SDS011;8302;51.154;4.456;2022-12-20T14:57:57;0.47;;;0.47;;
16385;SDS011;8302;51.154;4.456;2022-12-20T15:00:25;1.65;;;0.82;;
16385;SDS011;8302;51.154;4.456;2022-12-20T15:02:59;2.22;;;1.15;;
16385;SDS011;8302;51.154;4.456;2022-12-20T15:05:36;1.10;;;0.50;;
16385;SDS011;8302;51.154;4.456;2022-12-20T15:08:09;0.85;;;0.60;;
16385;SDS011;8302;51.154;4.456;2022-12-20T15:10:37;0.88;;;0.60;;
16385;SDS011;8302;51.154;4.456;2022-12-20T15:13:11;0.65;;;0.65;;
16385;SDS011;8302;51.154;4.456;2022-12-20T15:15:39;0.55;;;0.35;;
16385;SDS011;8302;51.154;4.456;2022-12-20T15:18:11;0.65;;;0.60;;
16385;SDS011;8302;51.154;4.456;2022-12-20T15:20:40;0.47;;;0.47;;
16385;SDS011;8302;51.154;4.456;2022-12-20T15:23:10;1.55;;;0.52;;
16385;SDS011;8302;51.154;4.456;2022-12-20T15:25:39;0.85;;;0.43;;
16385;SDS011;8302;51.154;4.456;2022-12-20T15:28:11;0.73;;;0.73;;
16385;SDS011;8302;51.154;4.456;2022-12-20T15:30:40;1.25;;;0.75;;
16385;SDS011;8302;51.154;4.456;2022-12-20T15:33:11;0.77;;;0.70;;
16385;SDS011;8302;51.154;4.456;2022-12-20T15:35:40;1.63;;;0.63;;
16385;SDS011;8302;51.154;4.456;2022-12-20T15:38:10;0.32;;;0.32;;